createdAt,value
2022-10-28T00:00:32.607Z,81.06
2022-10-28T00:03:01.839Z,81.03
2022-10-28T00:05:29.501Z,81.07
2022-10-28T00:07:57.162Z,80.89
2022-10-28T00:10:24.783Z,81.13
2022-10-28T00:12:53.798Z,81.20
2022-10-28T00:15:21.386Z,81.16
2022-10-28T00:17:49.102Z,80.66
2022-10-28T00:20:16.890Z,80.88
2022-10-28T00:22:44.888Z,81.01
2022-10-28T00:25:12.740Z,81.35
2022-10-28T00:27:40.362Z,81.16
2022-10-28T00:30:10.481Z,81.19
2022-10-28T00:32:38.159Z,80.88
2022-10-28T00:35:06.700Z,80.73
2022-10-28T00:37:34.306Z,81.10
2022-10-28T00:40:01.945Z,80.79
2022-10-28T00:42:29.566Z,80.52
2022-10-28T00:44:59.137Z,80.93
2022-10-28T00:47:51.948Z,80.72
2022-10-28T00:50:41.339Z,81.16
2022-10-28T00:53:12.587Z,81.32
2022-10-28T00:55:40.209Z,81.70
2022-10-28T00:58:09.228Z,81.51
2022-10-28T01:00:37.049Z,81.58
2022-10-28T01:03:06.145Z,81.56
2022-10-28T01:05:36.142Z,81.83
2022-10-28T01:08:05.371Z,81.96
2022-10-28T01:10:53.233Z,81.81
2022-10-28T01:13:28.079Z,81.93
2022-10-28T01:16:00.652Z,82.07
2022-10-28T01:18:33.313Z,81.87
2022-10-28T01:21:38.996Z,82.09
2022-10-28T01:24:16.791Z,81.81
2022-10-28T01:27:35.377Z,81.80
2022-10-28T01:30:09.617Z,82.13
2022-10-28T01:32:49.277Z,82.04
2022-10-28T01:35:20.471Z,81.47
2022-10-28T01:37:51.863Z,82.04
2022-10-28T01:40:23.238Z,81.99
2022-10-28T01:42:54.851Z,81.85
2022-10-28T01:45:26.325Z,81.73
2022-10-28T01:47:58.949Z,81.74
2022-10-28T01:50:30.062Z,81.45
2022-10-28T01:53:00.256Z,81.87
2022-10-28T01:55:29.499Z,81.97
2022-10-28T01:57:59.138Z,81.91
2022-10-28T02:00:27.033Z,82.00
2022-10-28T02:02:57.012Z,81.46
2022-10-28T02:05:42.729Z,81.44
2022-10-28T02:08:36.633Z,81.38
2022-10-28T02:11:34.116Z,81.04
2022-10-28T02:14:08.585Z,81.37
2022-10-28T02:16:43.705Z,81.58
2022-10-28T02:19:16.728Z,81.11
2022-10-28T02:21:50.823Z,81.14
2022-10-28T02:24:20.749Z,81.31
2022-10-28T02:26:54.195Z,81.53
2022-10-28T02:29:28.624Z,81.01
2022-10-28T02:31:58.961Z,81.18
2022-10-28T02:34:30.890Z,81.31
2022-10-28T02:37:00.934Z,81.24
2022-10-28T02:39:31.281Z,81.39
2022-10-28T02:42:01.384Z,81.40
2022-10-28T02:44:30.695Z,81.93
2022-10-28T02:47:00.987Z,81.43
2022-10-28T02:49:32.910Z,81.49
2022-10-28T02:52:03.071Z,81.34
2022-10-28T02:54:33.854Z,81.49
2022-10-28T02:57:05.383Z,81.64
2022-10-28T02:59:33.010Z,81.78
2022-10-28T03:02:00.817Z,81.31
2022-10-28T03:04:29.958Z,81.22
2022-10-28T03:06:57.557Z,81.10
2022-10-28T03:09:25.255Z,81.30
2022-10-28T03:11:52.991Z,81.25
2022-10-28T03:14:20.612Z,81.02
2022-10-28T03:16:48.238Z,81.07
2022-10-28T03:19:15.906Z,81.16
2022-10-28T03:21:44.912Z,81.14
2022-10-28T03:24:12.492Z,81.03
2022-10-28T03:26:40.128Z,81.45
2022-10-28T03:29:07.777Z,81.69
2022-10-28T03:31:35.419Z,81.10
2022-10-28T03:34:03.077Z,81.31
2022-10-28T03:36:30.685Z,81.27
2022-10-28T03:38:59.663Z,81.40
2022-10-28T03:41:27.325Z,81.59
2022-10-28T03:43:55.141Z,81.26
2022-10-28T03:46:22.761Z,81.27
2022-10-28T03:48:50.383Z,81.28
2022-10-28T03:51:18.238Z,81.08
2022-10-28T03:53:45.896Z,81.29
2022-10-28T03:56:14.945Z,81.10
2022-10-28T03:58:42.645Z,81.59
2022-10-28T04:01:10.412Z,81.48
2022-10-28T04:03:38.078Z,81.27
2022-10-28T04:06:06.122Z,81.57
2022-10-28T04:08:33.812Z,81.36
2022-10-28T04:11:01.466Z,81.29
2022-10-28T04:13:30.455Z,81.27
2022-10-28T04:15:58.070Z,81.03
2022-10-28T04:18:25.714Z,81.13
2022-10-28T04:20:53.312Z,81.07
2022-10-28T04:23:20.958Z,80.95
2022-10-28T04:25:52.253Z,81.19
2022-10-28T04:28:19.889Z,81.36
2022-10-28T04:30:49.193Z,81.25
2022-10-28T04:33:16.988Z,81.17
2022-10-28T04:35:44.608Z,81.24
2022-10-28T04:38:12.569Z,81.33
2022-10-28T04:40:40.216Z,81.05
2022-10-28T04:43:09.887Z,81.23
2022-10-28T04:45:38.418Z,81.18
2022-10-28T04:48:07.889Z,80.84
2022-10-28T04:50:35.486Z,81.11
2022-10-28T04:53:03.097Z,81.38
2022-10-28T04:55:30.718Z,81.44
2022-10-28T04:57:59.837Z,81.37
2022-10-28T05:00:28.581Z,81.80
2022-10-28T05:02:57.047Z,81.44
2022-10-28T05:05:26.532Z,81.41
2022-10-28T05:07:54.317Z,81.28
2022-10-28T05:10:22.121Z,81.65
2022-10-28T05:12:49.740Z,81.79
2022-10-28T05:15:17.639Z,81.74
2022-10-28T05:17:46.829Z,81.52
2022-10-28T05:20:16.660Z,81.54
2022-10-28T05:22:49.168Z,81.39
2022-10-28T05:25:16.968Z,81.70
2022-10-28T05:27:44.848Z,81.43
2022-10-28T05:30:13.395Z,81.31
2022-10-28T05:32:41.167Z,81.21
2022-10-28T05:35:09.800Z,81.05
2022-10-28T05:37:37.648Z,80.96
2022-10-28T05:40:07.632Z,81.11
2022-10-28T05:42:35.271Z,80.95
2022-10-28T05:45:02.921Z,81.32
2022-10-28T05:47:30.557Z,81.23
2022-10-28T05:49:58.170Z,80.97
2022-10-28T05:52:26.418Z,81.26
2022-10-28T05:54:54.029Z,80.90
2022-10-28T05:57:23.093Z,80.86
2022-10-28T05:59:50.658Z,80.69
2022-10-28T06:02:18.334Z,81.03
2022-10-28T06:04:45.937Z,80.81
2022-10-28T06:07:13.550Z,80.80
2022-10-28T06:09:41.199Z,80.83
2022-10-28T06:12:07.885Z,80.98
2022-10-28T06:14:36.875Z,80.90
2022-10-28T06:17:04.452Z,81.03
2022-10-28T06:19:31.991Z,80.98
2022-10-28T06:21:59.719Z,80.72
2022-10-28T06:24:27.356Z,80.57
2022-10-28T06:26:55.003Z,80.93
2022-10-28T06:29:22.641Z,80.63
2022-10-28T06:31:51.671Z,80.92
2022-10-28T06:34:19.313Z,80.88
2022-10-28T06:36:46.933Z,80.83
2022-10-28T06:39:14.572Z,80.69
2022-10-28T06:41:42.357Z,80.92
2022-10-28T06:44:10.066Z,80.85
2022-10-28T06:46:39.175Z,80.96
2022-10-28T06:49:09.054Z,80.73
2022-10-28T06:51:36.694Z,80.88
2022-10-28T06:54:04.445Z,80.71
2022-10-28T06:56:32.042Z,80.76
2022-10-28T06:58:59.669Z,80.49
2022-10-28T07:01:27.399Z,80.55
2022-10-28T07:03:55.070Z,80.71
2022-10-28T07:06:24.087Z,80.60
2022-10-28T07:08:52.591Z,80.77
2022-10-28T07:11:20.237Z,80.88
2022-10-28T07:13:49.025Z,80.72
2022-10-28T07:16:16.833Z,80.61
2022-10-28T07:18:44.495Z,81.17
2022-10-28T07:21:12.303Z,81.10
2022-10-28T07:23:41.353Z,80.97
2022-10-28T07:26:08.935Z,81.01
2022-10-28T07:28:36.552Z,80.58
2022-10-28T07:31:05.095Z,80.65
2022-10-28T07:35:48.145Z,80.70
2022-10-28T07:38:15.864Z,81.17
2022-10-28T07:40:43.480Z,80.67
2022-10-28T07:43:11.130Z,80.91
2022-10-28T07:45:39.107Z,80.79
2022-10-28T07:48:07.993Z,80.80
2022-10-28T07:50:36.033Z,80.53
2022-10-28T07:53:44.242Z,81.31
2022-10-28T07:56:14.055Z,81.00
2022-10-28T07:58:42.490Z,81.00
2022-10-28T08:01:12.286Z,81.12
2022-10-28T08:03:40.267Z,81.27
2022-10-28T08:06:10.629Z,80.98
2022-10-28T08:08:38.757Z,81.26
2022-10-28T08:11:15.436Z,81.49
2022-10-28T08:13:43.479Z,81.66
2022-10-28T08:16:11.371Z,81.21
2022-10-28T08:18:40.184Z,81.19
2022-10-28T08:21:09.172Z,81.14
2022-10-28T08:23:38.282Z,81.40
2022-10-28T08:26:06.710Z,81.80
2022-10-28T08:28:35.780Z,80.91
2022-10-28T08:31:08.766Z,80.99
2022-10-28T08:33:38.167Z,81.14
2022-10-28T08:36:06.438Z,81.29
2022-10-28T08:38:34.280Z,81.49
2022-10-28T08:41:12.053Z,81.02
2022-10-28T08:43:57.700Z,80.96
2022-10-28T08:46:31.954Z,80.94
2022-10-28T08:49:02.133Z,80.41
2022-10-28T08:54:06.848Z,80.61
2022-10-28T08:56:35.930Z,80.64
2022-10-28T08:59:06.002Z,79.52
2022-10-28T09:01:39.826Z,79.95
2022-10-28T09:04:14.379Z,79.15
2022-10-28T09:06:41.993Z,79.48
2022-10-28T09:09:44.845Z,78.98
2022-10-28T09:12:18.889Z,79.43
2022-10-28T09:14:57.061Z,79.83
2022-10-28T09:17:30.557Z,79.22
2022-10-28T09:20:00.926Z,78.33
2022-10-28T09:22:32.380Z,78.36
2022-10-28T09:25:03.254Z,78.71
2022-10-28T09:27:51.375Z,77.91
2022-10-28T09:30:32.160Z,78.30
2022-10-28T09:33:10.255Z,78.95
2022-10-28T09:35:41.188Z,78.12
2022-10-28T09:38:16.446Z,78.29
2022-10-28T09:40:51.593Z,78.07
2022-10-28T09:43:24.123Z,77.47
2022-10-28T09:45:54.039Z,77.89
2022-10-28T09:48:24.617Z,77.13
2022-10-28T09:50:54.125Z,77.57
2022-10-28T09:53:35.068Z,78.58
2022-10-28T09:56:06.418Z,77.03
2022-10-28T09:58:34.727Z,77.41
2022-10-28T10:01:03.282Z,77.38
2022-10-28T10:03:30.994Z,77.09
2022-10-28T10:06:01.038Z,77.61
2022-10-28T10:08:31.206Z,76.89
2022-10-28T10:11:02.125Z,77.46
2022-10-28T10:13:35.328Z,75.14
2022-10-28T10:16:06.943Z,74.87
2022-10-28T10:18:35.120Z,74.98
2022-10-28T10:21:02.808Z,75.25
2022-10-28T10:23:32.028Z,74.84
2022-10-28T10:26:03.135Z,75.17
2022-10-28T10:28:34.647Z,75.99
2022-10-28T10:31:04.647Z,75.28
2022-10-28T10:33:34.583Z,75.22
2022-10-28T10:36:05.056Z,73.32
2022-10-28T10:38:33.160Z,72.37
2022-10-28T10:41:00.887Z,73.20
2022-10-28T10:43:33.791Z,72.78
2022-10-28T10:46:03.775Z,73.40
2022-10-28T10:48:33.883Z,73.38
2022-10-28T10:51:06.351Z,73.38
2022-10-28T10:53:34.276Z,72.91
2022-10-28T10:56:03.560Z,72.26
2022-10-28T10:58:34.920Z,72.40
2022-10-28T11:01:04.945Z,72.83
2022-10-28T11:03:36.759Z,72.99
2022-10-28T11:08:59.345Z,74.39
2022-10-28T11:11:33.905Z,73.39
2022-10-28T11:14:08.507Z,74.35
2022-10-28T11:16:48.272Z,73.70
2022-10-28T11:19:21.907Z,71.80
2022-10-28T11:21:58.076Z,71.53
2022-10-28T11:24:42.345Z,71.68
2022-10-28T11:27:15.265Z,72.84
2022-10-28T11:29:45.682Z,71.81
2022-10-28T11:32:21.529Z,71.49
2022-10-28T11:35:11.669Z,72.27
2022-10-28T11:37:49.337Z,71.20
2022-10-28T11:40:27.622Z,71.61
2022-10-28T11:43:06.583Z,70.65
2022-10-28T11:45:40.526Z,72.61
2022-10-28T11:48:19.113Z,71.17
2022-10-28T11:50:54.115Z,72.55
2022-10-28T11:53:57.476Z,71.53
2022-10-28T11:56:31.926Z,70.97
2022-10-28T11:59:08.991Z,70.28
2022-10-28T12:04:05.854Z,71.62
2022-10-28T12:09:55.381Z,70.86
2022-10-28T12:12:28.975Z,71.14
2022-10-28T12:15:01.125Z,70.99
2022-10-28T12:17:35.025Z,71.17
2022-10-28T12:20:09.460Z,70.15
2022-10-28T12:22:43.341Z,70.06
2022-10-28T12:25:15.706Z,69.66
2022-10-28T12:27:45.629Z,69.86
2022-10-28T12:30:20.925Z,69.40
2022-10-28T12:32:50.592Z,69.02
2022-10-28T12:36:34.102Z,70.50
2022-10-28T12:39:03.753Z,68.96
2022-10-28T12:41:46.697Z,69.64
2022-10-28T12:44:15.890Z,69.23
2022-10-28T12:49:26.834Z,69.39
2022-10-28T12:51:57.188Z,68.56
2022-10-28T12:54:28.803Z,68.93
2022-10-28T12:57:04.792Z,69.21
2022-10-28T12:59:38.125Z,68.55
2022-10-28T13:02:08.065Z,68.67
2022-10-28T13:04:56.374Z,68.49
2022-10-28T13:07:38.404Z,68.71
2022-10-28T13:10:17.290Z,68.68
2022-10-28T13:13:03.350Z,67.80
2022-10-28T13:16:06.690Z,68.14
2022-10-28T13:18:49.162Z,67.89
2022-10-28T13:21:25.951Z,67.38
2022-10-28T13:23:56.459Z,67.10
2022-10-28T13:26:26.425Z,66.87
2022-10-28T13:28:55.819Z,67.77
2022-10-28T13:31:23.765Z,67.93
2022-10-28T13:33:57.078Z,68.20
2022-10-28T13:38:33.562Z,68.60
2022-10-28T13:41:29.613Z,68.20
2022-10-28T13:44:22.437Z,67.99
2022-10-28T13:47:25.186Z,68.58
2022-10-28T13:50:15.234Z,68.15
2022-10-28T13:52:44.091Z,68.90
2022-10-28T13:55:25.959Z,68.37
2022-10-28T13:58:00.025Z,69.27
2022-10-28T14:00:38.811Z,69.50
2022-10-28T14:03:07.500Z,69.16
2022-10-28T14:05:52.772Z,69.18
2022-10-28T14:08:22.938Z,69.81
2022-10-28T14:11:03.253Z,69.46
2022-10-28T14:13:32.276Z,69.52
2022-10-28T14:16:25.194Z,69.89
2022-10-28T14:18:56.033Z,69.82
2022-10-28T14:21:24.221Z,69.56
2022-10-28T14:24:11.604Z,69.70
2022-10-28T14:27:28.725Z,69.36
2022-10-28T14:30:24.731Z,68.81
2022-10-28T14:33:22.406Z,69.26
2022-10-28T14:35:55.577Z,70.02
2022-10-28T14:38:36.670Z,69.43
2022-10-28T14:41:25.674Z,68.70
2022-10-28T14:44:02.043Z,68.86
2022-10-28T14:46:41.480Z,68.76
2022-10-28T14:49:16.996Z,68.32
2022-10-28T14:51:45.679Z,67.60
2022-10-28T14:54:16.570Z,67.91
2022-10-28T14:56:44.585Z,67.63
2022-10-28T14:59:24.288Z,66.92
2022-10-28T15:02:01.367Z,66.78
2022-10-28T15:04:30.107Z,66.64
2022-10-28T15:06:58.061Z,66.23
2022-10-28T15:09:27.445Z,66.21
2022-10-28T15:11:58.940Z,66.39
2022-10-28T15:14:29.514Z,66.35
2022-10-28T15:17:00.002Z,65.84
2022-10-28T15:19:29.298Z,66.59
2022-10-28T15:22:05.284Z,67.11
2022-10-28T15:24:33.166Z,67.07
2022-10-28T15:27:01.064Z,67.09
2022-10-28T15:29:29.115Z,66.92
2022-10-28T15:32:16.124Z,66.69
2022-10-28T15:34:44.216Z,67.39
2022-10-28T15:37:12.774Z,67.25
2022-10-28T15:39:40.845Z,66.83
2022-10-28T15:44:04.931Z,67.40
2022-10-28T15:46:33.529Z,67.65
2022-10-28T15:49:02.447Z,67.93
2022-10-28T15:51:30.194Z,68.35
2022-10-28T15:54:11.255Z,68.01
2022-10-28T15:56:54.739Z,68.16
2022-10-28T15:59:24.996Z,68.88
2022-10-28T16:01:55.881Z,68.30
2022-10-28T16:04:43.121Z,68.65
2022-10-28T16:07:10.927Z,68.95
2022-10-28T16:09:44.284Z,69.15
2022-10-28T16:12:15.396Z,69.16
2022-10-28T16:14:45.593Z,69.01
2022-10-28T16:17:16.693Z,69.17
2022-10-28T16:19:49.308Z,69.33
2022-10-28T16:22:18.388Z,69.34
2022-10-28T16:24:47.029Z,69.29
2022-10-28T16:27:17.958Z,69.27
2022-10-28T16:29:47.045Z,69.41
2022-10-28T16:32:15.527Z,69.34
2022-10-28T16:34:43.199Z,69.51
2022-10-28T16:37:20.720Z,69.78
2022-10-28T16:42:41.460Z,69.70
2022-10-28T16:45:18.422Z,69.70
2022-10-28T16:47:46.369Z,70.43
2022-10-28T16:50:14.227Z,69.95
2022-10-28T16:52:41.837Z,70.35
2022-10-28T16:55:13.606Z,70.66
2022-10-28T16:57:42.636Z,70.82
2022-10-28T17:00:14.365Z,70.93
2022-10-28T17:02:42.376Z,71.06
2022-10-28T17:05:17.684Z,70.86
2022-10-28T17:07:45.435Z,71.35
2022-10-28T17:10:13.575Z,71.07
2022-10-28T17:12:42.641Z,70.99
2022-10-28T17:15:11.506Z,71.40
2022-10-28T17:17:39.321Z,71.06
2022-10-28T17:20:08.464Z,71.24
2022-10-28T17:22:36.105Z,71.26
2022-10-28T17:25:03.813Z,71.72
2022-10-28T17:27:31.489Z,71.55
2022-10-28T17:30:00.603Z,71.65
2022-10-28T17:32:28.307Z,71.87
2022-10-28T17:34:55.971Z,71.98
2022-10-28T17:37:23.597Z,72.16
2022-10-28T17:39:52.098Z,72.26
2022-10-28T17:42:19.814Z,72.06
2022-10-28T17:44:47.398Z,72.30
2022-10-28T17:47:16.468Z,72.41
2022-10-28T17:49:44.123Z,72.33
2022-10-28T17:52:11.834Z,72.72
2022-10-28T17:54:39.468Z,72.75
2022-10-28T17:57:08.122Z,72.91
2022-10-28T17:59:36.103Z,73.23
2022-10-28T18:02:03.891Z,73.14
2022-10-28T18:04:33.294Z,73.33
2022-10-28T18:07:00.885Z,73.10
2022-10-28T18:09:31.617Z,73.60
2022-10-28T18:11:59.738Z,73.55
2022-10-28T18:14:28.317Z,73.55
2022-10-28T18:16:55.994Z,73.69
2022-10-28T18:19:23.727Z,73.79
2022-10-28T18:21:52.813Z,73.97
2022-10-28T18:24:23.368Z,74.31
2022-10-28T18:26:55.446Z,74.30
2022-10-28T18:29:23.158Z,74.53
2022-10-28T18:31:50.848Z,74.39
2022-10-28T18:34:18.699Z,74.91
2022-10-28T18:36:46.456Z,74.72
2022-10-28T18:39:15.541Z,74.81
2022-10-28T18:41:44.587Z,74.64
2022-10-28T18:44:14.185Z,75.06
2022-10-28T18:46:42.166Z,75.45
2022-10-28T18:49:09.863Z,74.96
2022-10-28T18:51:37.595Z,75.04
2022-10-28T18:54:05.736Z,75.69
2022-10-28T18:56:35.108Z,75.43
2022-10-28T18:59:03.851Z,75.38
2022-10-28T19:01:32.239Z,75.76
2022-10-28T19:04:01.396Z,75.70
2022-10-28T19:06:32.485Z,75.78
2022-10-28T19:09:02.557Z,75.96
2022-10-28T19:11:32.416Z,75.75
2022-10-28T19:14:02.736Z,75.65
2022-10-28T19:16:31.910Z,76.16
2022-10-28T19:19:00.576Z,76.40
2022-10-28T19:21:29.021Z,76.48
2022-10-28T19:23:56.907Z,76.73
2022-10-28T19:26:24.727Z,76.97
2022-10-28T19:28:52.992Z,77.01
2022-10-28T19:31:24.183Z,76.47
2022-10-28T19:33:52.876Z,76.55
2022-10-28T19:36:21.744Z,76.75
2022-10-28T19:38:50.771Z,76.65
2022-10-28T19:41:20.042Z,76.81
2022-10-28T19:43:49.742Z,76.78
2022-10-28T19:46:22.842Z,76.72
2022-10-28T19:48:52.213Z,76.61
2022-10-28T19:51:21.799Z,77.24
2022-10-28T19:53:50.016Z,77.08
2022-10-28T19:56:19.363Z,77.24
2022-10-28T19:58:48.105Z,77.60
2022-10-28T20:01:17.464Z,77.53
2022-10-28T20:03:49.332Z,77.71
2022-10-28T20:06:18.277Z,77.57
2022-10-28T20:08:47.996Z,77.29
2022-10-28T20:11:20.088Z,77.76
2022-10-28T20:13:53.320Z,77.80
2022-10-28T20:16:21.104Z,77.87
2022-10-28T20:18:50.570Z,77.44
2022-10-28T20:21:19.685Z,77.83
2022-10-28T20:23:49.354Z,78.17
2022-10-28T20:26:17.889Z,77.82
2022-10-28T20:28:45.540Z,78.06
2022-10-28T20:31:15.218Z,78.17
2022-10-28T20:33:44.235Z,78.50
2022-10-28T20:36:24.556Z,78.24
2022-10-28T20:38:55.680Z,78.46
2022-10-28T20:41:24.244Z,78.38
2022-10-28T20:43:52.521Z,78.45
2022-10-28T20:46:20.620Z,78.21
2022-10-28T20:48:48.718Z,78.43
2022-10-28T20:51:16.592Z,77.81
2022-10-28T20:53:45.633Z,77.96
2022-10-28T20:56:17.036Z,78.41
2022-10-28T20:58:44.685Z,78.47
2022-10-28T21:01:14.599Z,78.05
2022-10-28T21:03:42.763Z,77.88
2022-10-28T21:06:10.960Z,78.45
2022-10-28T21:08:38.786Z,78.71
2022-10-28T21:11:10.082Z,79.07
2022-10-28T21:13:37.811Z,79.57
2022-10-28T21:16:06.535Z,79.36
2022-10-28T21:18:34.507Z,79.76
2022-10-28T21:21:02.192Z,79.23
2022-10-28T21:23:29.964Z,78.90
2022-10-28T21:25:59.779Z,78.83
2022-10-28T21:28:30.041Z,78.42
2022-10-28T21:31:01.463Z,78.66
2022-10-28T21:33:29.712Z,78.59
2022-10-28T21:35:58.105Z,78.51
2022-10-28T21:38:25.996Z,78.36
2022-10-28T21:41:00.753Z,77.91
2022-10-28T21:43:31.339Z,77.83
2022-10-28T21:45:59.344Z,77.74
2022-10-28T21:48:27.811Z,78.04
2022-10-28T21:50:56.829Z,77.90
2022-10-28T21:53:25.064Z,78.11
2022-10-28T21:55:54.862Z,77.52
2022-10-28T21:58:23.223Z,77.86
2022-10-28T22:00:52.243Z,77.50
2022-10-28T22:03:19.899Z,77.40
2022-10-28T22:05:51.168Z,77.45
2022-10-28T22:08:18.803Z,77.47
2022-10-28T22:10:46.566Z,77.59
2022-10-28T22:13:14.307Z,77.70
2022-10-28T22:15:42.171Z,78.20
2022-10-28T22:18:11.289Z,77.76
2022-10-28T22:20:39.142Z,77.90
2022-10-28T22:23:06.885Z,77.49
2022-10-28T22:25:34.637Z,77.74
2022-10-28T22:28:02.297Z,78.36
2022-10-28T22:30:29.981Z,77.82
2022-10-28T22:32:57.922Z,78.18
2022-10-28T22:35:27.189Z,77.75
2022-10-28T22:37:55.146Z,77.97
2022-10-28T22:40:23.064Z,77.92
2022-10-28T22:42:50.878Z,77.83
2022-10-28T22:45:18.665Z,78.11
2022-10-28T22:47:46.363Z,78.57
2022-10-28T22:50:14.170Z,78.44
2022-10-28T22:52:43.265Z,78.81
2022-10-28T22:55:11.261Z,78.63
2022-10-28T22:57:39.026Z,79.01
2022-10-28T23:00:07.999Z,79.31
2022-10-28T23:02:35.856Z,79.35
2022-10-28T23:05:03.679Z,79.51
2022-10-28T23:07:31.345Z,79.75
2022-10-28T23:10:00.514Z,78.95
2022-10-28T23:12:28.196Z,78.91
2022-10-28T23:14:55.947Z,78.87
2022-10-28T23:17:23.687Z,78.87
2022-10-28T23:19:51.368Z,79.38
2022-10-28T23:22:18.997Z,79.31
2022-10-28T23:24:46.761Z,79.42
2022-10-28T23:27:15.917Z,79.20
2022-10-28T23:29:43.645Z,79.11
2022-10-28T23:32:11.362Z,79.31
2022-10-28T23:34:39.083Z,79.45
2022-10-28T23:37:06.838Z,79.27
2022-10-28T23:39:34.483Z,79.25
2022-10-28T23:42:02.160Z,79.39
2022-10-28T23:44:31.270Z,79.62
2022-10-28T23:46:58.950Z,79.82
2022-10-28T23:49:26.656Z,79.74
2022-10-28T23:51:54.297Z,79.85
2022-10-28T23:54:22.010Z,79.68
2022-10-28T23:56:49.757Z,79.82
2022-10-28T23:59:17.452Z,79.78
